createdAt,value
2023-04-18T09:50:40.356Z,97688.05
2023-04-18T09:53:10.897Z,97683.06
2023-04-18T09:55:41.691Z,97683.84
2023-04-18T09:58:11.550Z,97683.27
2023-04-18T10:00:40.675Z,97678.61
2023-04-18T10:03:11.084Z,97677.84
2023-04-18T10:05:41.547Z,97679.77
2023-04-18T10:08:10.982Z,97681.67
2023-04-18T10:10:39.888Z,97681.29
2023-04-18T10:13:11.291Z,97682.02
2023-04-18T10:15:41.757Z,97676.97
2023-04-18T10:18:18.660Z,97675.44
2023-04-18T10:20:47.265Z,97673.95
2023-04-18T10:23:40.451Z,97677.70
2023-04-18T10:26:10.748Z,97673.54
2023-04-18T10:29:00.935Z,97671.02
2023-04-18T10:31:30.166Z,97671.08
2023-04-18T10:34:05.428Z,97675.03
2023-04-18T10:36:34.757Z,97674.64
2023-04-18T10:39:23.529Z,97671.31
2023-04-18T10:41:51.921Z,97667.64
2023-04-18T10:44:24.617Z,97666.42
2023-04-18T10:46:58.453Z,97665.41
2023-04-18T10:49:34.311Z,97663.27
2023-04-18T10:52:06.165Z,97664.23
2023-04-18T10:54:42.060Z,97663.12
2023-04-18T10:57:13.893Z,97651.27
2023-04-18T10:59:44.868Z,97645.01
2023-04-18T11:02:30.899Z,97648.88
2023-04-18T11:05:02.684Z,97643.77
2023-04-18T11:07:46.404Z,97653.40
2023-04-18T11:10:20.492Z,97654.40
2023-04-18T11:12:49.140Z,97648.73
2023-04-18T11:15:22.352Z,97646.40
2023-04-18T11:18:10.420Z,97647.45
2023-04-18T11:20:48.954Z,97643.40
2023-04-18T11:23:25.684Z,97648.23
2023-04-18T11:25:56.689Z,97650.40
2023-04-18T11:28:32.559Z,97645.34
2023-04-18T11:31:03.030Z,97637.25
2023-04-18T11:33:31.385Z,97630.89
2023-04-18T11:35:59.922Z,97627.84
2023-04-18T11:38:34.655Z,97626.16
2023-04-18T11:41:03.141Z,97623.52
2023-04-18T11:43:31.563Z,97622.14
2023-04-18T11:46:00.362Z,97624.60
2023-04-18T11:48:43.018Z,97625.34
2023-04-18T11:51:55.363Z,97622.17
2023-04-18T11:54:41.229Z,97621.90
2023-04-18T11:57:45.920Z,97618.80
2023-04-18T12:00:15.119Z,97615.59
2023-04-18T12:02:48.975Z,97611.04
2023-04-18T12:05:29.417Z,97605.11
2023-04-18T12:08:19.046Z,97604.27
2023-04-18T12:10:57.028Z,97595.91
2023-04-18T12:13:27.511Z,97597.25
2023-04-18T12:15:56.252Z,97592.88
2023-04-18T12:18:24.890Z,97588.42
2023-04-18T12:20:56.971Z,97588.23
2023-04-18T12:23:46.151Z,97586.74
2023-04-18T12:26:28.724Z,97586.54
2023-04-18T12:28:58.429Z,97586.95
2023-04-18T12:31:28.833Z,97578.93
2023-04-18T12:34:00.305Z,97579.37
2023-04-18T12:36:28.841Z,97580.46
2023-04-18T12:38:57.076Z,97578.51
2023-04-18T12:41:25.631Z,97577.23
2023-04-18T12:43:53.908Z,97576.81
2023-04-18T12:46:22.322Z,97574.89
2023-04-18T12:48:50.752Z,97574.78
2023-04-18T12:51:18.999Z,97572.60
2023-04-18T12:53:56.510Z,97570.85
2023-04-18T12:56:24.931Z,97567.20
2023-04-18T12:58:53.164Z,97571.35
2023-04-18T13:01:21.504Z,97573.93
2023-04-18T13:03:59.890Z,97566.88
2023-04-18T13:06:37.842Z,97561.64
2023-04-18T13:09:06.165Z,97564.61
2023-04-18T13:11:34.538Z,97561.73
2023-04-18T13:14:02.826Z,97558.13
2023-04-18T13:16:31.434Z,97563.11
2023-04-18T13:18:59.897Z,97556.33
2023-04-18T13:21:28.319Z,97550.96
2023-04-18T13:23:56.646Z,97548.36
2023-04-18T13:26:25.209Z,97547.87
2023-04-18T13:28:54.764Z,97549.52
2023-04-18T13:34:17.738Z,97545.30
2023-04-18T13:36:45.931Z,97550.95
2023-04-18T13:39:15.377Z,97547.17
2023-04-18T13:41:43.794Z,97546.48
2023-04-18T13:44:12.142Z,97542.55
2023-04-18T13:46:40.825Z,97537.92
2023-04-18T13:49:09.022Z,97537.38
2023-04-18T13:51:37.386Z,97536.23
2023-04-18T13:54:05.728Z,97538.34
2023-04-18T13:56:34.313Z,97533.60
2023-04-18T13:59:02.635Z,97530.80
2023-04-18T14:01:31.157Z,97531.44
2023-04-18T14:03:59.498Z,97525.12
2023-04-18T14:06:27.981Z,97527.23
2023-04-18T14:08:56.162Z,97528.06
2023-04-18T14:11:24.345Z,97528.80
2023-04-18T14:13:52.713Z,97532.41
2023-04-18T14:16:28.364Z,97525.86
2023-04-18T14:18:57.296Z,97526.36
2023-04-18T14:21:26.604Z,97524.69
2023-04-18T14:23:54.855Z,97521.67
2023-04-18T14:26:23.051Z,97519.35
2023-04-18T14:28:51.336Z,97521.30
2023-04-18T14:31:19.726Z,97518.56
2023-04-18T14:33:48.142Z,97514.88
2023-04-18T14:36:16.953Z,97513.88
2023-04-18T14:38:48.678Z,97510.69
2023-04-18T14:41:16.819Z,97512.71
2023-04-18T14:43:45.093Z,97512.59
2023-04-18T14:46:16.804Z,97513.30
2023-04-18T14:48:48.538Z,97503.90
2023-04-18T14:51:17.134Z,97508.42
2023-04-18T14:53:45.804Z,97508.45
2023-04-18T14:56:14.875Z,97510.89
2023-04-18T14:58:52.771Z,97508.75
2023-04-18T15:01:21.178Z,97510.64
2023-04-18T15:03:51.493Z,97510.11
2023-04-18T15:06:19.965Z,97511.91
2023-04-18T15:08:48.171Z,97515.30
2023-04-18T15:11:16.421Z,97515.23
2023-04-18T15:13:44.829Z,97510.30
2023-04-18T15:16:13.325Z,97508.10
2023-04-18T15:18:41.623Z,97511.17
2023-04-18T15:21:09.766Z,97513.71
2023-04-18T15:23:38.096Z,97512.52
2023-04-18T15:26:06.550Z,97513.37
2023-04-18T15:28:34.952Z,97511.09
2023-04-18T15:31:03.285Z,97513.77
2023-04-18T15:33:31.616Z,97514.30
2023-04-18T15:36:00.076Z,97512.57
2023-04-18T15:38:28.397Z,97512.13
2023-04-18T15:40:56.784Z,97509.11
2023-04-18T15:43:31.263Z,97506.63
2023-04-18T15:46:01.629Z,97506.95
2023-04-18T15:48:34.129Z,97507.70
2023-04-18T15:51:02.421Z,97507.02
2023-04-18T15:53:30.608Z,97505.91
2023-04-18T15:56:01.881Z,97509.27
2023-04-18T15:58:30.473Z,97505.77
2023-04-18T16:00:58.871Z,97508.29
2023-04-18T16:03:27.479Z,97510.42
2023-04-18T16:05:55.826Z,97509.09
2023-04-18T16:08:24.030Z,97510.40
2023-04-18T16:10:53.429Z,97509.81
2023-04-18T16:13:21.625Z,97509.13
2023-04-18T16:15:50.034Z,97521.09
2023-04-18T16:18:18.329Z,97520.86
2023-04-18T16:20:47.373Z,97520.17
2023-04-18T16:23:15.783Z,97520.22
2023-04-18T16:25:43.989Z,97521.14
2023-04-18T16:28:12.211Z,97518.92
2023-04-18T16:30:43.852Z,97518.43
2023-04-18T16:33:12.128Z,97523.65
2023-04-18T16:35:46.967Z,97523.17
2023-04-18T16:38:25.248Z,97526.70
2023-04-18T16:40:57.845Z,97529.20
2023-04-18T16:43:38.314Z,97528.78
2023-04-18T16:46:49.991Z,97529.02
2023-04-18T16:49:27.774Z,97529.76
2023-04-18T17:39:02.783Z,97541.89
2023-04-18T17:52:49.154Z,97549.40
2023-04-18T18:04:45.023Z,97550.09
2023-04-18T18:07:37.013Z,97552.78
2023-04-18T18:10:12.339Z,97554.20
2023-04-18T18:12:42.855Z,97554.02
2023-04-18T18:15:29.075Z,97555.67
2023-04-18T18:18:29.109Z,97552.43
2023-04-18T18:21:18.806Z,97555.02
2023-04-18T18:24:00.143Z,97550.44
2023-04-18T18:30:03.141Z,97552.03
2023-04-18T18:32:52.093Z,97547.77
2023-04-18T18:35:22.218Z,97548.60
2023-04-18T18:42:25.176Z,97549.98
2023-04-18T18:54:14.473Z,97548.92
2023-04-18T19:01:47.112Z,97548.89
2023-04-18T19:04:19.232Z,97549.30
2023-04-18T19:06:56.778Z,97551.09
2023-04-18T19:16:40.361Z,97546.77
2023-04-18T19:19:56.392Z,97546.27
2023-04-18T19:22:35.254Z,97551.91
2023-04-18T19:37:21.699Z,97552.86
2023-04-18T19:43:42.767Z,97557.08
2023-04-18T19:46:11.593Z,97558.77
2023-04-18T19:48:40.131Z,97561.90
2023-04-18T19:51:08.454Z,97559.58
2023-04-18T19:53:36.889Z,97556.80
2023-04-18T19:56:05.872Z,97560.54
2023-04-18T19:58:40.408Z,97559.59
2023-04-18T20:01:18.610Z,97559.95
2023-04-18T20:03:48.386Z,97563.21
2023-04-18T20:06:18.199Z,97563.80
2023-04-18T20:08:46.658Z,97560.02
2023-04-18T20:11:15.291Z,97559.50
2023-04-18T20:13:47.193Z,97562.35
2023-04-18T20:16:17.018Z,97559.54
2023-04-18T20:18:55.110Z,97560.48
2023-04-18T20:21:23.763Z,97564.59
2023-04-18T20:23:52.349Z,97566.15
2023-04-18T20:26:21.058Z,97570.27
2023-04-18T20:28:57.008Z,97570.45
2023-04-18T20:31:25.332Z,97571.09
2023-04-18T20:33:56.041Z,97573.05
2023-04-18T20:36:25.010Z,97572.07
2023-04-18T20:38:53.585Z,97570.02
2023-04-18T20:41:24.405Z,97569.20
2023-04-18T20:43:55.113Z,97573.20
2023-04-18T20:46:23.819Z,97570.84
2023-04-18T20:48:52.291Z,97568.17
2023-04-18T20:51:21.556Z,97565.67
2023-04-18T20:53:50.013Z,97569.05
2023-04-18T20:56:18.549Z,97568.08
2023-04-18T20:58:47.709Z,97567.25
2023-04-18T21:01:16.264Z,97565.81
2023-04-18T21:03:44.916Z,97566.23
2023-04-18T21:06:14.600Z,97562.56
2023-04-18T21:08:43.027Z,97566.64
2023-04-18T21:11:11.451Z,97564.27
2023-04-18T21:13:39.896Z,97561.16
2023-04-18T21:16:10.371Z,97559.70
2023-04-18T21:18:38.973Z,97560.02
2023-04-18T21:21:08.070Z,97557.75
2023-04-18T21:23:42.188Z,97556.36
2023-04-18T21:26:12.680Z,97553.38
2023-04-18T21:29:01.728Z,97552.63
2023-04-18T21:31:33.111Z,97550.64
2023-04-18T21:34:04.395Z,97545.67
2023-04-18T21:36:33.131Z,97548.21
2023-04-18T21:39:01.730Z,97546.33
2023-04-18T21:41:30.246Z,97547.64
2023-04-18T21:43:58.716Z,97548.33
2023-04-18T21:46:27.318Z,97547.50
2023-04-18T21:48:55.961Z,97552.02
2023-04-18T21:51:24.543Z,97552.71
2023-04-18T21:53:53.914Z,97550.58
2023-04-18T21:56:22.336Z,97551.20
2023-04-18T21:58:50.751Z,97548.52
2023-04-18T22:01:20.026Z,97550.98
2023-04-18T22:03:48.769Z,97547.30
2023-04-18T22:06:17.405Z,97549.30
2023-04-18T22:08:45.778Z,97547.61
2023-04-18T22:11:14.349Z,97542.95
2023-04-18T22:13:45.183Z,97541.27
2023-04-18T22:16:13.752Z,97538.73
2023-04-18T22:18:43.130Z,97537.14
2023-04-18T22:21:11.992Z,97537.45
2023-04-18T22:23:40.393Z,97533.85
2023-04-18T22:26:08.916Z,97534.15
2023-04-18T22:28:37.455Z,97535.60
2023-04-18T22:31:05.983Z,97539.74
2023-04-18T22:33:35.266Z,97535.23
2023-04-18T22:36:03.856Z,97531.09
2023-04-18T22:38:32.525Z,97529.71
2023-04-18T22:41:01.002Z,97531.09
2023-04-18T22:43:30.448Z,97531.71
2023-04-18T22:45:58.940Z,97529.34
2023-04-18T22:48:27.369Z,97527.11
2023-04-18T22:50:56.066Z,97527.27
2023-04-18T22:53:25.171Z,97523.05
2023-04-18T22:55:53.797Z,97523.16
2023-04-18T22:58:22.305Z,97521.09
2023-04-18T23:00:51.919Z,97517.88
2023-04-18T23:03:20.682Z,97516.42
2023-04-18T23:05:49.361Z,97515.50
2023-04-18T23:08:22.776Z,97513.90
2023-04-18T23:10:52.495Z,97508.62
2023-04-18T23:13:24.717Z,97506.24
2023-04-18T23:15:53.312Z,97500.51
2023-04-18T23:18:21.639Z,97500.96
2023-04-18T23:20:50.165Z,97496.67
2023-04-18T23:23:18.566Z,97493.09
2023-04-18T23:25:47.121Z,97491.40
2023-04-18T23:28:17.279Z,97482.45
2023-04-18T23:30:48.189Z,97484.91
2023-04-18T23:33:17.234Z,97484.14
2023-04-18T23:35:45.693Z,97480.46
2023-04-18T23:38:15.034Z,97479.63
2023-04-18T23:40:43.870Z,97479.85
2023-04-18T23:43:12.347Z,97479.94
2023-04-18T23:45:40.926Z,97477.10
2023-04-18T23:48:09.524Z,97476.79
2023-04-18T23:50:38.358Z,97471.36
2023-04-18T23:53:07.433Z,97466.01
2023-04-18T23:55:35.836Z,97464.86
2023-04-18T23:58:05.316Z,97462.20
